Flight Track Log - Related Links

Times and Time Zones

All times are in EDT time to prevent confusion due to time zone crossing. See the UCA3599 flight status page for this flight to view local times or setup timezone preferences in your user account.

Time Position Orientation Groundspeed Altitude Reporting Facility
EDT Latitude Longitude Course Direction KTS MPH feet Rate Location/Type
Fri 06:16:57 AM 42.1844 -75.9678 209° Southwest 107 123 3,000  Level New York Center
Fri 06:17:57 AM 42.1628 -75.9856 211° Southwest 111 128 4,300 1,400 Climbing New York Center
Fri 06:18:57 AM 42.1389 -76.0061 213° Southwest 119 137 5,800 1,500 Climbing New York Center
Fri 06:19:57 AM 42.1150 -76.0294 216° Southwest 109 125 7,300 1,150 Climbing New York Center
Fri 06:20:57 AM 42.0911 -76.0556 219° Southwest 109 125 8,100 400 Climbing New York Center
Fri 06:21:57 AM 42.0539 -76.0917 216° Southwest 137 158 8,100 300 Level New York Center
Fri 06:22:00 AM 41.9665 -76.0949 209° Southwest  Level Estimated
Fri 06:22:57 AM 42.0169 -76.1278 216° Southwest 179 206 8,700  Level New York Center
Fri 06:23:57 AM 41.9800 -76.1611 214° Southwest 170 196 10,100 1,200 Climbing New York Center
Fri 06:24:57 AM 41.9472 -76.1947 217° Southwest 156 180 11,100 1,000 Climbing New York Center
Fri 06:25:57 AM 41.9147 -76.2225 212° Southwest 156 180 12,100 1,050 Climbing New York Center
Fri 06:26:57 AM 41.8819 -76.2561 217° Southwest 161 185 13,200 1,200 Climbing New York Center
Fri 06:27:57 AM 41.8469 -76.2922 218° Southwest 156 180 14,500 1,200 Climbing New York Center
Fri 06:28:57 AM 41.8144 -76.3228 215° Southwest 156 180 15,600 750 Climbing New York Center
Fri 06:29:57 AM 41.7819 -76.3508 213° Southwest 156 180 16,000 200 Climbing New York Center
Fri 06:30:57 AM 41.7372 -76.3692 197° South 169 194 16,000  Level New York Center
Fri 06:31:57 AM 41.6861 -76.3928 199° South 194 223 16,000  Level New York Center
Fri 06:32:57 AM 41.6289 -76.4158 197° South 199 229 16,000  Level New York Center
Fri 06:33:57 AM 41.5797 -76.4392 200° South 194 223 16,000  Level New York Center
Fri 06:34:57 AM 41.5350 -76.4633 202° Southwest 194 223 16,000  Level New York Center
Fri 06:35:57 AM 41.4858 -76.4867 200° South 194 223 16,000  Level New York Center
Fri 06:36:57 AM 41.4328 -76.5100 198° South 194 223 16,000  Level New York Center
Fri 06:37:57 AM 41.3858 -76.5336 201° Southwest 194 223 16,000  Level New York Center
Fri 06:38:57 AM 41.3386 -76.5572 201° Southwest 194 223 16,000  Level New York Center
Fri 06:39:57 AM 41.2961 -76.5756 198° South 194 223 16,000  Level New York Center
Fri 06:40:57 AM 41.2472 -76.5989 200° South 194 223 16,000  Level New York Center
Fri 06:41:57 AM 41.1939 -76.6219 198° South 194 223 16,000  Level New York Center
Fri 06:42:57 AM 41.1447 -76.6453 200° South 194 223 16,000  Level New York Center
Fri 06:43:57 AM 41.0981 -76.6661 199° South 194 223 16,000  Level New York Center
Fri 06:44:57 AM 41.0450 -76.6861 196° South 194 223 16,000  Level New York Center
Fri 06:45:57 AM 40.9894 -76.7089 197° South 199 229 16,000 -50 Level New York Center
Fri 06:46:57 AM 40.9322 -76.7314 197° South 199 229 15,900  Descending New York Center
Fri 06:47:57 AM 40.8767 -76.7567 199° South 205 236 16,000 50 Climbing New York Center
Fri 06:48:57 AM 40.8194 -76.7764 195° South 218 251 16,000  Level New York Center
Fri 06:49:57 AM 40.7661 -76.7992 198° South 213 245 16,000  Level New York Center
Fri 06:50:57 AM 40.7194 -76.8169 196° South 207 238 16,000 100 Level New York Center
Fri 06:51:57 AM 40.6619 -76.8419 198° South 207 238 16,200  Climbing New York Center
Fri 06:52:57 AM 40.6128 -76.8622 197° South 207 238 16,000 -100 Descending New York Center
Fri 06:53:57 AM 40.5492 -76.8867 196° South 212 244 16,000  Level New York Center
Fri 06:54:57 AM 40.5003 -76.9042 195° South 212 244 16,000 -250 Level New York Center
Fri 06:55:57 AM 40.4406 -76.9289 197° South 212 244 15,500 -700 Descending New York Center
Fri 06:56:57 AM 40.3894 -76.9517 199° South 212 244 14,600 -1,000 Descending New York Center
Fri 06:57:57 AM 40.3236 -76.9756 195° South 218 251 13,500 -1,000 Descending New York Center
Fri 06:58:57 AM 40.2703 -76.9953 196° South 223 257 12,600 -1,000 Descending New York Center
Fri 06:59:57 AM 40.2106 -77.0200 198° South 223 257 11,500 -1,050 Descending New York Center
Fri 07:00:57 AM 40.1681 -77.0350 195° South 194 223 10,500 -1,000 Descending New York Center
Fri 07:01:57 AM 40.1169 -77.0550 197° South 183 211 9,500 -357 Descending New York Center
Fri 07:05:09 AM 39.9667 -77.1167 197° South 170 196 9,000 -94 Descending Potomac TRACON
Fri 07:07:15 AM 39.8500 -77.1500 192° South 204 235 9,000 -323 Level Potomac TRACON
Fri 07:08:15 AM 39.8000 -77.1833 207° Southwest 199 229 8,000 -500 Descending Potomac TRACON
Fri 07:09:15 AM 39.7500 -77.2000 194° South 181 208 8,000 -474 Level Potomac TRACON
Fri 07:10:09 AM 39.7000 -77.2000 180° South 187 215 7,100 -500 Descending Potomac TRACON
Fri 07:11:15 AM 39.6500 -77.1833 166° South 209 241 7,000 -48 Descending Potomac TRACON
Fri 07:12:15 AM 39.5833 -77.1667 169° South 212 244 7,000  Level Potomac TRACON
Fri 07:13:09 AM 39.5333 -77.1667 180° South 205 236 7,000  Level Potomac TRACON
Fri 07:14:09 AM 39.4833 -77.2000 207° Southwest 200 230 7,000  Level Potomac TRACON
Fri 07:15:03 AM 39.4500 -77.2333 218° Southwest 197 227 7,000  Level Potomac TRACON
Fri 07:16:03 AM 39.4000 -77.2500 194° South 195 224 7,000 -105 Level Potomac TRACON
Fri 07:16:57 AM 39.3667 -77.3000 229° Southwest 188 216 6,800 -737 Descending Potomac TRACON
Fri 07:17:57 AM 39.3167 -77.3333 207° Southwest 176 203 5,600 -1,211 Descending Potomac TRACON
Fri 07:18:51 AM 39.2833 -77.3833 229° Southwest 175 201 4,500 -1,211 Descending Potomac TRACON
Fri 07:19:51 AM 39.2500 -77.4167 218° Southwest 184 212 3,300 -750 Descending Potomac TRACON
Fri 07:20:51 AM 39.2000 -77.4500 207° Southwest 187 215 3,000 -157 Descending Potomac TRACON
Fri 07:21:46 AM 39.1667 -77.4500 180° South 173 199 3,000 -52 Level Potomac TRACON
Fri 07:22:46 AM 39.1167 -77.4500 180° South 173 199 2,900 -368 Descending Potomac TRACON
Fri 07:23:40 AM 39.0833 -77.4500 180° South 148 170 2,300 -737 Descending Potomac TRACON
Fri 07:24:40 AM 39.0333 -77.4667 195° South 152 175 1,500 -700 Descending Potomac TRACON
Fri 07:25:40 AM 39.0000 -77.4667 180° South 121 139 900 -600 Descending Potomac TRACON
Fri 07:27:00 AM 38.9474 -77.4599 133° Southeast  Level Estimated
Fri 07:34:00 AM 38.9474 -77.4599 345° North  Level Estimated

Login

Don't have an account? Register now (free) for customized features, flight alerts, and more!